| time (UTC) | temp C | wind direction | speed KPH | gust KPH | rain 1hr cm | rain 24hr cm | rain mn cm | humidity % | barometer mb |
| 20260506044550 | 19 | 179 | 0.0 | 0.0 | 0.00 | 0.00 | 0.00 | 70 | 1012.6 |
| 20260506043023 | 19 | 157 | 0.0 | 6.4 | 0.00 | 0.00 | 0.00 | 70 | 1012.8 |
| 20260506041519 | 20 | 165 | 1.6 | 6.4 | 0.00 | 0.00 | 0.00 | 69 | 1012.8 |
| 20260506040019 | 20 | 205 | 3.2 | 6.4 | 0.00 | 0.00 | 0.00 | 69 | 1012.7 |
| 20260506034537 | 20 | 172 | 1.6 | 6.4 | 0.00 | 0.00 | 0.00 | 68 | 1012.8 |
| 20260506033015 | 20 | 165 | 0.0 | 0.0 | 0.00 | 0.00 | 0.00 | 67 | 1012.7 |
| 20260506031544 | 20 | 173 | 0.0 | 0.0 | 0.00 | 0.00 | 0.00 | 65 | 1012.7 |
| 20260506030040 | 20 | 162 | 0.0 | 0.0 | 0.00 | 0.00 | 0.00 | 63 | 1012.7 |
| 20260506024535 | 21 | 176 | 0.0 | 0.0 | 0.00 | 0.00 | 0.00 | 62 | 1012.7 |
| 20260506023040 | 21 | 166 | 0.0 | 0.0 | 0.00 | 0.00 | 0.00 | 61 | 1012.7 |
| 20260506021533 | 21 | 188 | 0.0 | 4.8 | 0.00 | 0.00 | 0.00 | 61 | 1012.6 |
| 20260506020031 | 21 | 217 | 0.0 | 0.0 | 0.00 | 0.00 | 0.00 | 60 | 1012.4 |
| 20260506014529 | 21 | 166 | 0.0 | 0.0 | 0.00 | 0.00 | 0.00 | 59 | 1012.2 |
| 20260506013025 | 21 | 168 | 0.0 | 0.0 | 0.00 | 0.00 | 0.00 | 58 | 1012.0 |
| 20260506011522 | 21 | 166 | 0.0 | 0.0 | 0.00 | 0.00 | 0.00 | 57 | 1011.8 |
| 20260506010019 | 22 | 169 | 0.0 | 0.0 | 0.00 | 0.00 | 0.00 | 56 | 1011.8 |
| 20260506004529 | 22 | 219 | 0.0 | 4.8 | 0.00 | 0.00 | 0.00 | 55 | 1011.5 |
| 20260506003011 | 22 | 169 | 1.6 | 4.8 | 0.00 | 0.00 | 0.00 | 53 | 1011.5 |
| 20260506001508 | 23 | 165 | 0.0 | 0.0 | 0.00 | 0.00 | 0.00 | 52 | 1011.4 |
| 20260506000004 | 23 | 144 | 0.0 | 0.0 | 0.00 | 0.00 | 0.00 | 50 | 1011.3 |
| 20260505234502 | 24 | 163 | 0.0 | 4.8 | 0.00 | 0.00 | 0.00 | 49 | 1011.4 |
| 20260505233102 | 24 | 176 | 1.6 | 8.0 | 0.00 | 0.00 | 0.00 | 48 | 1011.2 |
| 20260505231553 | 25 | 174 | 0.0 | 8.0 | 0.00 | 0.00 | 0.00 | 47 | 1011.3 |
| 20260505230051 | 25 | 169 | 1.6 | 6.4 | 0.00 | 0.00 | 0.00 | 47 | 1011.2 |
| 20260505224550 | 25 | 172 | 3.2 | 8.0 | 0.00 | 0.00 | 0.00 | 46 | 1011.6 |
| 20260505223016 | 25 | 184 | 1.6 | 8.0 | 0.00 | 0.00 | 0.00 | 44 | 1011.7 |
| 20260505221516 | 26 | 176 | 3.2 | 8.0 | 0.00 | 0.00 | 0.00 | 44 | 1011.5 |
| 20260505220020 | 26 | 159 | 3.2 | 11.3 | 0.00 | 0.00 | 0.00 | 42 | 1011.4 |
| 20260505214505 | 27 | 188 | 1.6 | 8.0 | 0.00 | 0.00 | 0.00 | 41 | 1011.4 |
| 20260505213004 | 27 | 181 | 1.6 | 6.4 | 0.00 | 0.00 | 0.00 | 40 | 1011.4 |
| 20260505211505 | 27 | 162 | 3.2 | 9.7 | 0.00 | 0.00 | 0.00 | 39 | 1011.5 |
| 20260505210100 | 27 | 167 | 0.0 | 9.7 | 0.00 | 0.00 | 0.00 | 38 | 1011.5 |
| 20260505204603 | 27 | 179 | 3.2 | 14.5 | 0.00 | 0.00 | 0.00 | 36 | 1011.4 |
| 20260505203055 | 28 | 177 | 1.6 | 9.7 | 0.00 | 0.00 | 0.00 | 35 | 1011.3 |
| 20260505201551 | 29 | 269 | 3.2 | 8.0 | 0.00 | 0.00 | 0.00 | 32 | 1011.4 |
| 20260505200048 | 29 | 231 | 0.0 | 8.0 | 0.00 | 0.00 | 0.00 | 31 | 1011.5 |
| 20260505194547 | 29 | 211 | 4.8 | 12.9 | 0.00 | 0.00 | 0.00 | 31 | 1011.5 |
| 20260505193048 | 30 | 181 | 3.2 | 9.7 | 0.00 | 0.00 | 0.00 | 31 | 1011.7 |
| 20260505191553 | 29 | 243 | 3.2 | 11.3 | 0.00 | 0.00 | 0.00 | 29 | 1012.0 |
| 20260505190038 | 30 | 172 | 4.8 | 14.5 | 0.00 | 0.00 | 0.00 | 29 | 1012.4 |
| 20260505184536 | 30 | 155 | 3.2 | 8.0 | 0.00 | 0.00 | 0.00 | 31 | 1012.6 |
| 20260505183032 | 29 | 165 | 3.2 | 9.7 | 0.00 | 0.00 | 0.00 | 32 | 1012.6 |
| 20260505181529 | 29 | 101 | 3.2 | 11.3 | 0.00 | 0.00 | 0.00 | 30 | 1012.9 |
| 20260505180104 | 29 | 186 | 4.8 | 9.7 | 0.00 | 0.00 | 0.00 | 29 | 1013.1 |
| 20260505174611 | 28 | 169 | 6.4 | 17.7 | 0.00 | 0.00 | 0.00 | 31 | 1013.2 |
| 20260505173052 | 28 | 213 | 1.6 | 8.0 | 0.00 | 0.00 | 0.00 | 32 | 1013.4 |
| 20260505171551 | 28 | 200 | 1.6 | 11.3 | 0.00 | 0.00 | 0.00 | 32 | 1013.4 |
| 20260505170122 | 28 | 203 | 4.8 | 11.3 | 0.00 | 0.00 | 0.00 | 33 | 1013.5 |
| 20260505164551 | 28 | 169 | 0.0 | 6.4 | 0.00 | 0.00 | 0.00 | 36 | 1013.6 |
| 20260505163020 | 28 | 241 | 1.6 | 9.7 | 0.00 | 0.00 | 0.00 | 37 | 1013.7 |
| 20260505161513 | 27 | 162 | 3.2 | 8.0 | 0.00 | 0.00 | 0.00 | 41 | 1013.9 |
| 20260505153008 | 27 | 151 | 0.0 | 3.2 | 0.00 | 0.00 | 0.00 | 46 | 1014.3 |
| 20260505151507 | 26 | 148 | 1.6 | 4.8 | 0.00 | 0.00 | 0.00 | 48 | 1014.4 |
| 20260505124553 | 16 | 170 | 0.0 | 3.2 | 0.00 | 0.00 | 0.00 | 71 | 1014.6 |
| 20260505123109 | 16 | 162 | 1.6 | 6.4 | 0.00 | 0.00 | 0.00 | 71 | 1014.6 |
| 20260505121551 | 15 | 172 | 1.6 | 4.8 | 0.00 | 0.00 | 0.00 | 71 | 1014.4 |
| 20260505120050 | 15 | 162 | 0.0 | 3.2 | 0.00 | 0.00 | 0.00 | 71 | 1014.4 |
| 20260505114609 | 15 | 155 | 0.0 | 0.0 | 0.00 | 0.00 | 0.00 | 71 | 1014.2 |
| 20260505113046 | 15 | 158 | 0.0 | 0.0 | 0.00 | 0.00 | 0.00 | 70 | 1014.0 |
| 20260505111558 | -17 | 0.0 | 0.0 | 0.00 | 0.00 | 0.00 | 1013.9 | ||
| 20260505101532 | -17 | 0.0 | 0.0 | 0.00 | 0.00 | 0.00 | 1013.5 | ||
| 20260505100021 | -17 | 0.0 | 0.0 | 0.00 | 0.00 | 0.00 | 1013.4 | ||
| 20260505094513 | -17 | 0.0 | 0.0 | 0.00 | 0.00 | 0.00 | 1013.3 | ||
| 20260505093011 | -17 | 0.0 | 0.0 | 0.00 | 0.00 | 0.00 | 1013.3 | ||
| 20260505091507 | -17 | 0.0 | 0.0 | 0.00 | 0.00 | 0.00 | 1013.3 | ||
| 20260505090004 | 13 | 154 | 0.0 | 0.0 | 0.00 | 0.00 | 0.00 | 71 | 1013.2 |
| 20260505084600 | 13 | 160 | 0.0 | 0.0 | 0.00 | 0.00 | 0.00 | 72 | 1013.2 |
| 20260505083108 | 13 | 160 | 0.0 | 0.0 | 0.00 | 0.00 | 0.00 | 72 | 1013.3 |
| 20260505081558 | 14 | 160 | 0.0 | 0.0 | 0.00 | 0.00 | 0.00 | 72 | 1013.2 |
| 20260505080056 | 14 | 173 | 0.0 | 0.0 | 0.00 | 0.00 | 0.00 | 72 | 1013.2 |
| 20260505074553 | 15 | 173 | 0.0 | 0.0 | 0.00 | 0.00 | 0.00 | 72 | 1013.1 |
| 20260505073055 | 15 | 169 | 0.0 | 0.0 | 0.00 | 0.00 | 0.00 | 72 | 1012.9 |
| 20260505071551 | 15 | 184 | 0.0 | 0.0 | 0.00 | 0.00 | 0.00 | 72 | 1012.8 |
| 20260505070052 | 15 | 144 | 0.0 | 0.0 | 0.00 | 0.00 | 0.00 | 72 | 1012.8 |
| 20260505064557 | 15 | 174 | 0.0 | 0.0 | 0.00 | 0.00 | 0.00 | 71 | 1012.9 |
| 20260505063052 | 15 | 162 | 0.0 | 0.0 | 0.00 | 0.00 | 0.00 | 71 | 1012.9 |
| 20260505061545 | 15 | 200 | 0.0 | 0.0 | 0.00 | 0.00 | 0.00 | 70 | 1012.9 |
| 20260505060044 | 16 | 205 | 0.0 | 0.0 | 0.00 | 0.00 | 0.00 | 70 | 1012.8 |